»·PEaware :: N160RA KAJO-KVCV

N160RA :: KAJO-KVCV

FLIGHT INFORMATION

Flight Status: Arrived
Operator: Privately registered:
United States
More flights under this callsign
Pilot: Cody B. (17747)
Aircraft: CESSNA 172 SKYHAWK
(C172)
More flights by this aircraft type
Origin: KAJO Corona Mun
United States
Destination: KVCV Socal Logistics
United States
More flights between these airports :: More routes between these airports
Route: +PDZ V442 APLES
File this flight plan on PilotEdge
Remarks:
Altitude:
(Current/Filed)
9,000ft
Speed:
(Current/Filed)
110kts
Departed: 13-Feb-20 02:43 PM
Arrived: 13-Feb-20 03:50 PM
Distance/Time
Traveled:
43nm/1:06
Distance/Time
To Go:
Arrived

Flight Plot

Page will automatically refresh every two minutes.


Map Options




Map Legend


Flown Route
Filed Route
Departure Airport
Arrival Airport
Navaid (VOR, NDB)
Fix

Horizontal Profiles

Position Reports

Time Latitude Longitude Heading Altitude Ground
Speed
13-Feb-20 14:09 33.896978 -117.607296 180 537ft 0kts
13-Feb-20 14:10 33.896978 -117.607296 180 537ft 0kts
13-Feb-20 14:11 33.896978 -117.607296 180 537ft 0kts
13-Feb-20 14:12 33.896978 -117.607296 180 537ft 0kts
13-Feb-20 14:13 33.896978 -117.607296 180 537ft 0kts
13-Feb-20 14:14 33.896978 -117.607296 180 537ft 0kts
13-Feb-20 14:15 33.896978 -117.607296 180 537ft 0kts
13-Feb-20 14:16 33.896978 -117.607296 180 537ft 0kts
13-Feb-20 14:17 33.896978 -117.607296 180 537ft 0kts
13-Feb-20 14:18 33.896978 -117.607296 180 537ft 0kts
13-Feb-20 14:19 33.896978 -117.607296 180 537ft 0kts
13-Feb-20 14:20 33.896978 -117.607296 180 537ft 0kts
13-Feb-20 14:21 33.896978 -117.607296 180 537ft 0kts
13-Feb-20 14:22 33.896978 -117.607296 180 537ft 0kts
13-Feb-20 14:23 33.896977 -117.607296 180 537ft 0kts
13-Feb-20 14:24 33.896978 -117.607296 180 537ft 0kts
13-Feb-20 14:25 33.896978 -117.607296 180 537ft 0kts
13-Feb-20 14:26 33.896978 -117.607296 180 537ft 0kts
13-Feb-20 14:27 33.896978 -117.607296 180 537ft 0kts
13-Feb-20 14:28 33.896978 -117.607296 180 537ft 0kts
13-Feb-20 14:29 33.896978 -117.607296 180 537ft 0kts
13-Feb-20 14:30 33.896978 -117.607296 180 537ft 0kts
13-Feb-20 14:31 33.896978 -117.607296 180 537ft 0kts
13-Feb-20 14:32 33.896978 -117.607296 180 537ft 0kts
13-Feb-20 14:33 33.896978 -117.607296 180 537ft 0kts
13-Feb-20 14:34 33.896978 -117.607296 180 537ft 0kts
13-Feb-20 14:35 33.896978 -117.607296 180 537ft 0kts
13-Feb-20 14:36 33.896978 -117.607296 180 537ft 0kts
13-Feb-20 14:37 33.896978 -117.607296 180 537ft 0kts
13-Feb-20 14:38 33.896920 -117.606318 80 537ft 11kts
13-Feb-20 14:40 33.897260 -117.601934 90 537ft 19kts
13-Feb-20 14:41 33.897497 -117.597251 355 537ft 0kts
13-Feb-20 14:42 33.897729 -117.597887 268 537ft 20kts
13-Feb-20 14:43 33.904506 -117.606314 86 1004ft 94kts
13-Feb-20 14:44 33.908102 -117.574843 75 1762ft 95kts
13-Feb-20 14:45 33.915521 -117.545054 71 2519ft 90kts
13-Feb-20 14:46 33.935527 -117.532177 11 3216ft 88kts
13-Feb-20 14:47 33.954373 -117.513318 84 3748ft 94kts
13-Feb-20 14:48 33.934351 -117.510382 222 4250ft 105kts
13-Feb-20 14:49 33.915886 -117.537474 263 4752ft 107kts
13-Feb-20 14:50 33.936173 -117.544193 40 5246ft 98kts
13-Feb-20 14:51 33.956990 -117.523757 62 5743ft 94kts
13-Feb-20 14:52 33.941519 -117.513562 205 6237ft 95kts
13-Feb-20 14:53 33.924478 -117.532708 281 6819ft 85kts
13-Feb-20 14:54 33.940959 -117.534118 44 7274ft 69kts
13-Feb-20 14:55 33.955383 -117.519871 48 7637ft 67kts
13-Feb-20 14:56 33.975279 -117.502124 55 7699ft 106kts
13-Feb-20 14:56 33.990992 -117.480613 46 8064ft 97kts
13-Feb-20 14:58 34.017465 -117.465644 26 8631ft 82kts
13-Feb-20 14:59 34.040083 -117.455868 23 8970ft 94kts
13-Feb-20 14:59 34.060699 -117.442104 34 9095ft 117kts
13-Feb-20 15:00 34.092316 -117.422729 24 9031ft 132kts
13-Feb-20 15:02 34.131541 -117.402072 28 9038ft 131kts
13-Feb-20 15:02 34.158992 -117.385884 29 9045ft 131kts
13-Feb-20 15:03 34.191663 -117.366150 29 9052ft 131kts
13-Feb-20 15:04 34.223810 -117.346685 29 9059ft 127kts
13-Feb-20 15:05 34.254473 -117.328099 29 9063ft 120kts
13-Feb-20 15:06 34.284051 -117.310157 29 9064ft 119kts
13-Feb-20 15:07 34.313664 -117.292221 29 9064ft 118kts
13-Feb-20 15:08 34.343214 -117.274316 29 9064ft 118kts
13-Feb-20 15:09 34.372648 -117.256489 29 9064ft 118kts
13-Feb-20 15:10 34.401985 -117.238267 32 9064ft 118kts
13-Feb-20 15:11 34.431129 -117.219855 29 9064ft 118kts
13-Feb-20 15:12 34.460344 -117.201361 29 9064ft 118kts
13-Feb-20 15:13 34.489830 -117.183604 28 9064ft 118kts
13-Feb-20 15:14 34.519477 -117.165848 28 9064ft 118kts
13-Feb-20 15:15 34.549348 -117.148910 19 9065ft 119kts
13-Feb-20 15:16 34.582278 -117.142521 5 8912ft 123kts
13-Feb-20 15:17 34.617575 -117.143662 354 8519ft 130kts
13-Feb-20 15:18 34.653923 -117.152817 344 8042ft 134kts
13-Feb-20 15:19 34.688784 -117.170176 333 7544ft 136kts
13-Feb-20 15:20 34.720679 -117.195280 322 7045ft 137kts
13-Feb-20 15:21 34.747919 -117.226780 311 6463ft 134kts
13-Feb-20 15:22 34.769821 -117.263596 300 5866ft 134kts
13-Feb-20 15:23 34.785804 -117.304593 290 5265ft 132kts
13-Feb-20 15:24 34.795227 -117.347330 279 4666ft 130kts
13-Feb-20 15:25 34.786635 -117.380679 181 4447ft 102kts
13-Feb-20 15:26 34.759278 -117.378174 175 4359ft 99kts
13-Feb-20 15:27 34.732968 -117.378757 182 4282ft 88kts
13-Feb-20 15:28 34.709855 -117.380686 181 4289ft 73kts
13-Feb-20 15:29 34.687879 -117.382248 183 4108ft 97kts
13-Feb-20 15:30 34.663529 -117.384140 182 3693ft 75kts
13-Feb-20 15:31 34.641724 -117.385957 183 3300ft 80kts
13-Feb-20 15:32 34.620636 -117.387644 177 3352ft 65kts
13-Feb-20 15:33 34.606559 -117.395452 270 3605ft 77kts
13-Feb-20 15:34 34.612988 -117.424616 283 4089ft 96kts
13-Feb-20 15:35 34.618837 -117.455384 282 4755ft 89kts
13-Feb-20 15:36 34.623766 -117.482246 282 5429ft 72kts
13-Feb-20 15:37 34.627377 -117.504921 282 5882ft 72kts
13-Feb-20 15:38 34.633525 -117.536165 282 6010ft 117kts
13-Feb-20 15:39 34.626906 -117.570738 184 5623ft 105kts
13-Feb-20 15:40 34.604164 -117.553495 134 5463ft 94kts
13-Feb-20 15:41 34.599238 -117.524400 72 5214ft 104kts
13-Feb-20 15:42 34.597518 -117.491457 105 5005ft 99kts
13-Feb-20 15:43 34.592532 -117.458369 97 4807ft 100kts
13-Feb-20 15:44 34.587523 -117.423274 94 4512ft 98kts
13-Feb-20 15:45 34.594806 -117.391785 47 4272ft 98kts
13-Feb-20 15:46 34.612510 -117.367536 49 3830ft 84kts
13-Feb-20 15:47 34.611032 -117.352839 218 3217ft 74kts
13-Feb-20 15:48 34.597710 -117.370023 228 2850ft 54kts
13-Feb-20 15:49 34.594322 -117.372561 186 2858ft 9kts
13-Feb-20 15:50 34.589196 -117.374324 195 2868ft 28kts
13-Feb-20 15:51 34.588922 -117.374941 10 2868ft 0kts

Navigation Log

Ident Type
Flight plan parsing failed, navigation log unavailable